Tropic Sun — J8AZ2 — position and weather

sailwx.info

Track history (hours):
 
Tides and Currents Weather Stations Pressure Air Temp Water Temp Dewpoint Dewpoint Depression Visibility Wind Speed Wind Dir Waves Ship Positions

Tropic Sun

Last reported at 2018-Jul-18 06:00 UTC. Time now 2018-Jul-18 12:07 UTC.
Position N 26°36' W 079°36'.

Type: Cargo ship. MMSI: 375902000.

Wind from 150 at 8 knots

Barometer 1018.6 mb
Air temperature 29.2 ° C
Visibility: greater than 5.4 NM
Dewpoint 24.6 ° C
Water temperature 27.0 ° C

Date/timePositionNaut miles runAvg speedWind from/ knotsBaromVisibWave heightAir tempDewpointWater temp
2018-Jul-18 06:00N 26°36' W 079°36'2117.5 150 / 81018.6 5.4 29.224.627.0
2018-Jul-18 04:48N 26°45' W 079°57'411.7
2018-Jul-18 04:28N 26°46' W 080°01'2 3.9
2018-Jul-18 04:00N 26°46' W 080°03'0 0.0
2018-Jul-17 23:35N 26°46' W 080°03'0 1.5
2018-Jul-17 23:28N 26°46' W 080°03'2 4.7
2018-Jul-17 22:59N 26°46' W 080°00'5112.8
2018-Jul-17 19:00N 26°30' W 079°06'5 0.4 180 / 101019.1 5.4 29.422.627.0
2018-Jul-17 07:00N 26°30' W 079°12'44 9.1 150 / 81019.4 5.4 28.424.627.0
2018-Jul-17 02:08N 26°45' W 079°59'1 5.1
2018-Jul-17 01:53N 26°46' W 079°60'  
2018-Jul-13 21:19N 26°46' W 080°03'3 4.9
2018-Jul-13 20:41N 26°46' W 079°60'314.1
2018-Jul-13 20:30N 26°45' W 079°57'3112.2
2018-Jul-13 18:00N 26°36' W 079°24'2911.8 320 / 121020.8 5.4 28.723.927.0
2018-Jul-13 15:32N 26°30' W 078°52'12 2.2
2018-Jul-13 10:00N 26°30' W 079°06'4513.0 070 / 91019.010.8 27.919.728.0
2018-Jul-13 06:32N 26°44' W 079°54'012.7
2018-Jul-13 06:30N 26°44' W 079°54'713.3
2018-Jul-13 06:00N 26°46' W 080°01'2 2.6
2018-Jul-13 05:21N 26°46' W 080°03'0 0.0
2018-Jul-13 04:46N 26°46' W 080°03'0 0.0
2018-Jul-12 23:30N 26°46' W 080°03'2 3.9
2018-Jul-12 22:59N 26°46' W 080°01'1 1.5
2018-Jul-12 22:30N 26°47' W 080°00'1 1.1
2018-Jul-12 22:00N 26°46' W 079°60'3 5.3
2018-Jul-12 21:29N 26°45' W 079°57'26 1.7
2018-Jul-12 06:00N 26°36' W 079°30'31 5.1 230 / 71016.6 5.4 28.224.427.0
2018-Jul-11 23:48N 26°46' W 080°03'0 0.0
2018-Jul-11 23:30N 26°46' W 080°03'0 0.0
2018-Jul-11 22:57N 26°46' W 080°03'0 0.0
2018-Jul-11 22:29N 26°46' W 080°03'3 4.8
2018-Jul-11 21:52N 26°46' W 079°60'513.7
2018-Jul-11 21:30N 26°45' W 079°54'4613.1
2018-Jul-11 18:00N 26°30' W 079°06'17 1.4 270 / 81017.2 5.4 28.823.327.0
2018-Jul-11 06:00N 26°36' W 079°24'3017.1 060 / 81018.3 5.4 27.524.427.0
2018-Jul-11 04:15N 26°45' W 079°56'411.7
2018-Jul-11 03:56N 26°46' W 079°60'  
2018-Jul-08 10:25N 26°46' W 080°03'0 0.0
2018-Jul-08 09:55N 26°46' W 080°03'0 0.0
2018-Jul-08 09:28N 26°46' W 080°03'0 0.0
2018-Jul-08 08:58N 26°46' W 080°03'0 0.0
2018-Jul-08 08:22N 26°46' W 080°03'0 0.0
2018-Jul-08 07:58N 26°46' W 080°03'0 0.0
2018-Jul-08 07:28N 26°46' W 080°03'0 0.0
2018-Jul-08 06:34N 26°46' W 080°03'0 0.0
2018-Jul-08 06:22N 26°46' W 080°03'  
Track history (hours):
 
Tides and Currents Weather Stations Pressure Air Temp Water Temp Dewpoint Dewpoint Depression Visibility Wind Speed Wind Dir Waves Ship Positions

Tropic Sun

Last reported at 2018-Jul-18 06:00 UTC. Time now 2018-Jul-18 12:07 UTC.
Position N 26°36' W 079°36'.

Type: Cargo ship. MMSI: 375902000.

Wind from 150 at 8 knots

Barometer 1018.6 mb
Air temperature 29.2 ° C
Visibility: greater than 5.4 NM
Dewpoint 24.6 ° C
Water temperature 27.0 ° C

Date/timePositionNaut miles runAvg speedWind from/ knotsBaromVisibWave heightAir tempDewpointWater temp
2018-Jul-18 06:00N 26°36' W 079°36'2117.5 150 / 81018.6 5.4 29.224.627.0
2018-Jul-18 04:48N 26°45' W 079°57'411.7
2018-Jul-18 04:28N 26°46' W 080°01'2 3.9
2018-Jul-18 04:00N 26°46' W 080°03'0 0.0
2018-Jul-17 23:35N 26°46' W 080°03'0 1.5
2018-Jul-17 23:28N 26°46' W 080°03'2 4.7
2018-Jul-17 22:59N 26°46' W 080°00'5112.8
2018-Jul-17 19:00N 26°30' W 079°06'5 0.4 180 / 101019.1 5.4 29.422.627.0
2018-Jul-17 07:00N 26°30' W 079°12'44 9.1 150 / 81019.4 5.4 28.424.627.0
2018-Jul-17 02:08N 26°45' W 079°59'1 5.1
2018-Jul-17 01:53N 26°46' W 079°60'  
2018-Jul-13 21:19N 26°46' W 080°03'3 4.9
2018-Jul-13 20:41N 26°46' W 079°60'314.1
2018-Jul-13 20:30N 26°45' W 079°57'3112.2
2018-Jul-13 18:00N 26°36' W 079°24'2911.8 320 / 121020.8 5.4 28.723.927.0
2018-Jul-13 15:32N 26°30' W 078°52'12 2.2
2018-Jul-13 10:00N 26°30' W 079°06'4513.0 070 / 91019.010.8 27.919.728.0
2018-Jul-13 06:32N 26°44' W 079°54'012.7
2018-Jul-13 06:30N 26°44' W 079°54'713.3
2018-Jul-13 06:00N 26°46' W 080°01'2 2.6
2018-Jul-13 05:21N 26°46' W 080°03'0 0.0
2018-Jul-13 04:46N 26°46' W 080°03'0 0.0
2018-Jul-12 23:30N 26°46' W 080°03'2 3.9
2018-Jul-12 22:59N 26°46' W 080°01'1 1.5
2018-Jul-12 22:30N 26°47' W 080°00'1 1.1
2018-Jul-12 22:00N 26°46' W 079°60'3 5.3
2018-Jul-12 21:29N 26°45' W 079°57'26 1.7
2018-Jul-12 06:00N 26°36' W 079°30'31 5.1 230 / 71016.6 5.4 28.224.427.0
2018-Jul-11 23:48N 26°46' W 080°03'0 0.0
2018-Jul-11 23:30N 26°46' W 080°03'0 0.0
2018-Jul-11 22:57N 26°46' W 080°03'0 0.0
2018-Jul-11 22:29N 26°46' W 080°03'3 4.8
2018-Jul-11 21:52N 26°46' W 079°60'513.7
2018-Jul-11 21:30N 26°45' W 079°54'4613.1
2018-Jul-11 18:00N 26°30' W 079°06'17 1.4 270 / 81017.2 5.4 28.823.327.0
2018-Jul-11 06:00N 26°36' W 079°24'3017.1 060 / 81018.3 5.4 27.524.427.0
2018-Jul-11 04:15N 26°45' W 079°56'411.7
2018-Jul-11 03:56N 26°46' W 079°60'  
2018-Jul-08 10:25N 26°46' W 080°03'0 0.0
2018-Jul-08 09:55N 26°46' W 080°03'0 0.0
2018-Jul-08 09:28N 26°46' W 080°03'0 0.0
2018-Jul-08 08:58N 26°46' W 080°03'0 0.0
2018-Jul-08 08:22N 26°46' W 080°03'0 0.0
2018-Jul-08 07:58N 26°46' W 080°03'0 0.0
2018-Jul-08 07:28N 26°46' W 080°03'0 0.0
2018-Jul-08 06:34N 26°46' W 080°03'0 0.0
2018-Jul-08 06:22N 26°46' W 080°03'  

Dump ship's entire track history